createdAt,value
2023-05-25T00:01:03.482Z,27.55
2023-05-25T00:03:36.430Z,27.40
2023-05-25T00:06:10.567Z,31.40
2023-05-25T00:08:42.759Z,36.38
2023-05-25T00:11:17.229Z,21.30
2023-05-25T00:13:50.675Z,22.20
2023-05-25T00:16:27.165Z,32.17
2023-05-25T00:18:59.286Z,24.05
2023-05-25T00:21:34.383Z,22.75
2023-05-25T00:24:07.073Z,17.30
2023-05-25T00:26:39.227Z,21.30
2023-05-25T00:29:11.380Z,20.27
2023-05-25T00:31:43.689Z,20.40
2023-05-25T00:34:16.227Z,22.98
2023-05-25T00:36:48.675Z,15.07
2023-05-25T00:39:21.246Z,17.10
2023-05-25T00:41:54.966Z,16.55
2023-05-25T00:44:28.460Z,27.70
2023-05-25T00:47:04.597Z,21.05
2023-05-25T00:49:37.107Z,15.32
2023-05-25T00:52:15.714Z,19.95
2023-05-25T00:54:52.457Z,18.95
2023-05-25T00:57:27.874Z,20.27
2023-05-25T01:00:01.579Z,19.27
2023-05-25T01:02:34.059Z,30.02
2023-05-25T01:05:09.799Z,22.45
2023-05-25T01:07:44.590Z,14.75
2023-05-25T01:10:17.817Z,22.55
2023-05-25T01:12:51.542Z,17.08
2023-05-25T01:15:24.290Z,17.73
2023-05-25T01:17:59.680Z,18.35
2023-05-25T01:20:32.172Z,17.52
2023-05-25T01:23:14.172Z,21.55
2023-05-25T01:25:52.430Z,20.83
2023-05-25T01:28:40.480Z,15.90
2023-05-25T01:31:16.384Z,19.35
2023-05-25T01:33:51.792Z,18.90
2023-05-25T01:36:23.946Z,24.15
2023-05-25T01:38:56.357Z,25.27
2023-05-25T01:41:28.553Z,28.10
2023-05-25T01:44:01.093Z,20.13
2023-05-25T01:46:39.837Z,17.90
2023-05-25T01:49:27.873Z,24.88
2023-05-25T01:52:21.048Z,18.35
2023-05-25T01:55:04.129Z,23.95
2023-05-25T01:57:39.163Z,26.00
2023-05-25T02:00:13.840Z,26.80
2023-05-25T02:02:48.219Z,26.35
2023-05-25T02:05:21.461Z,23.58
2023-05-25T02:07:53.922Z,22.63
2023-05-25T02:10:26.039Z,23.10
2023-05-25T02:12:58.113Z,22.48
2023-05-25T02:15:33.546Z,23.63
2023-05-25T02:18:05.970Z,19.30
2023-05-25T02:20:38.294Z,21.42
2023-05-25T02:23:10.916Z,21.48
2023-05-25T02:25:43.428Z,23.55
2023-05-25T02:28:15.831Z,26.88
2023-05-25T02:30:47.932Z,19.63
2023-05-25T02:33:20.467Z,21.73
2023-05-25T02:35:52.578Z,25.48
2023-05-25T02:38:24.721Z,26.35
2023-05-25T02:40:57.508Z,21.80
2023-05-25T02:43:29.663Z,32.50
2023-05-25T02:46:01.809Z,19.27
2023-05-25T02:48:34.186Z,20.77
2023-05-25T02:51:06.494Z,20.95
2023-05-25T02:53:39.097Z,20.88
2023-05-25T02:56:11.406Z,28.30
2023-05-25T02:58:43.589Z,21.67
2023-05-25T03:01:20.512Z,35.15
2023-05-25T03:03:52.803Z,24.63
2023-05-25T03:06:28.226Z,32.72
2023-05-25T03:09:00.545Z,33.78
2023-05-25T03:11:32.749Z,31.30
2023-05-25T03:14:04.902Z,25.38
2023-05-25T03:16:39.259Z,35.75
2023-05-25T03:19:12.292Z,28.85
2023-05-25T03:21:44.455Z,35.15
2023-05-25T03:24:16.554Z,27.50
2023-05-25T03:26:48.706Z,27.95
2023-05-25T03:29:23.580Z,31.17
2023-05-25T03:31:56.106Z,28.15
2023-05-25T03:34:29.999Z,31.02
2023-05-25T03:37:02.266Z,29.98
2023-05-25T03:39:34.405Z,31.40
2023-05-25T03:42:07.421Z,29.83
2023-05-25T03:44:41.326Z,29.33
2023-05-25T03:47:13.775Z,29.10
2023-05-25T03:49:46.122Z,31.48
2023-05-25T03:52:18.259Z,39.95
2023-05-25T03:54:50.337Z,34.08
2023-05-25T03:57:22.466Z,27.58
2023-05-25T03:59:54.988Z,32.20
2023-05-25T04:02:27.206Z,33.08
2023-05-25T04:05:00.178Z,42.80
2023-05-25T04:07:32.517Z,37.97
2023-05-25T04:10:05.412Z,30.95
2023-05-25T04:12:37.617Z,34.80
2023-05-25T04:15:10.221Z,39.03
2023-05-25T04:17:42.405Z,37.08
2023-05-25T04:20:14.584Z,37.33
2023-05-25T04:22:47.841Z,46.92
2023-05-25T04:25:20.168Z,34.88
2023-05-25T04:27:53.730Z,30.92
2023-05-25T04:30:25.822Z,35.83
2023-05-25T04:33:02.845Z,24.52
2023-05-25T04:35:36.880Z,35.10
2023-05-25T04:38:09.045Z,31.65
2023-05-25T04:40:41.996Z,33.35
2023-05-25T04:43:18.367Z,36.95
2023-05-25T04:45:51.593Z,41.40
2023-05-25T04:48:24.866Z,31.02
2023-05-25T04:50:57.560Z,27.17
2023-05-25T04:53:30.247Z,33.03
2023-05-25T04:56:02.570Z,37.00
2023-05-25T04:58:34.735Z,31.70
2023-05-25T05:01:06.873Z,34.08
2023-05-25T05:03:39.160Z,34.95
2023-05-25T05:06:11.276Z,32.72
2023-05-25T05:08:43.495Z,27.75
2023-05-25T05:11:15.898Z,24.27
2023-05-25T05:13:48.013Z,26.73
2023-05-25T05:16:23.469Z,34.05
2023-05-25T05:18:55.851Z,21.77
2023-05-25T05:21:28.223Z,24.75
2023-05-25T05:24:00.524Z,19.83
2023-05-25T05:26:41.208Z,17.10
2023-05-25T05:29:24.792Z,20.15
2023-05-25T05:31:56.970Z,24.13
2023-05-25T05:34:29.205Z,27.13
2023-05-25T05:37:01.334Z,20.08
2023-05-25T05:39:33.504Z,23.77
2023-05-25T05:42:06.654Z,16.83
2023-05-25T05:44:38.991Z,14.52
2023-05-25T05:47:11.168Z,19.83
2023-05-25T05:49:43.244Z,17.48
2023-05-25T05:52:16.011Z,15.60
2023-05-25T05:54:48.218Z,16.45
2023-05-25T05:57:20.307Z,23.92
2023-05-25T05:59:52.516Z,18.25
2023-05-25T06:02:24.914Z,15.85
2023-05-25T06:04:57.400Z,17.75
2023-05-25T06:07:31.055Z,24.10
2023-05-25T06:10:03.315Z,16.20
2023-05-25T06:12:35.437Z,17.48
2023-05-25T06:15:08.991Z,16.33
2023-05-25T06:17:42.064Z,19.67
2023-05-25T06:20:15.281Z,20.08
2023-05-25T06:22:47.516Z,17.20
2023-05-25T06:25:20.576Z,18.27
2023-05-25T06:27:52.732Z,16.40
2023-05-25T06:30:24.866Z,13.43
2023-05-25T06:32:57.709Z,13.27
2023-05-25T06:35:30.223Z,15.93
2023-05-25T06:38:03.113Z,19.63
2023-05-25T06:40:35.233Z,15.48
2023-05-25T06:43:07.573Z,14.85
2023-05-25T06:45:39.719Z,11.85
2023-05-25T06:48:11.882Z,14.82
2023-05-25T06:50:44.136Z,18.30
2023-05-25T06:53:17.327Z,18.73
2023-05-25T06:55:49.610Z,15.25
2023-05-25T06:58:21.744Z,16.48
2023-05-25T07:00:53.967Z,15.73
2023-05-25T07:03:26.298Z,16.33
2023-05-25T07:05:59.205Z,14.77
2023-05-25T07:08:31.664Z,21.42
2023-05-25T07:11:04.004Z,13.13
2023-05-25T07:13:36.246Z,18.75
2023-05-25T07:16:08.399Z,13.80
2023-05-25T07:18:41.272Z,20.63
2023-05-25T07:21:13.472Z,14.70
2023-05-25T07:23:45.570Z,13.40
2023-05-25T07:26:17.852Z,16.38
2023-05-25T07:28:50.020Z,11.15
2023-05-25T07:31:22.666Z,18.50
2023-05-25T07:33:55.861Z,18.05
2023-05-25T07:36:28.194Z,20.77
2023-05-25T07:39:00.334Z,13.88
2023-05-25T07:41:33.846Z,13.65
2023-05-25T07:44:06.026Z,18.10
2023-05-25T07:46:38.202Z,18.00
2023-05-25T07:49:16.056Z,12.40
2023-05-25T07:51:48.292Z,24.08
2023-05-25T07:54:20.461Z,15.00
2023-05-25T07:56:52.742Z,16.67
2023-05-25T07:59:26.989Z,18.23
2023-05-25T08:01:59.113Z,17.05
2023-05-25T08:04:32.054Z,14.38
2023-05-25T08:07:04.647Z,14.18
2023-05-25T08:09:36.796Z,15.23
2023-05-25T08:12:33.734Z,14.82
2023-05-25T08:15:01.057Z,18.95
2023-05-25T08:17:33.178Z,17.13
2023-05-25T08:20:08.804Z,17.38
2023-05-25T08:22:40.962Z,14.43
2023-05-25T08:25:13.076Z,13.02
2023-05-25T08:27:45.481Z,17.17
2023-05-25T08:30:17.655Z,18.08
2023-05-25T08:32:49.849Z,22.23
2023-05-25T08:35:21.971Z,17.55
2023-05-25T08:37:54.083Z,10.60
2023-05-25T08:40:30.918Z,21.45
2023-05-25T08:43:03.113Z,22.90
2023-05-25T08:45:37.075Z,14.82
2023-05-25T08:48:13.922Z,15.65
2023-05-25T08:50:49.559Z,17.02
2023-05-25T08:53:26.350Z,33.92
2023-05-25T08:56:00.169Z,20.83
2023-05-25T08:58:41.168Z,18.98
2023-05-25T09:01:18.673Z,24.02
2023-05-25T09:03:51.766Z,19.40
2023-05-25T09:06:27.199Z,22.40
2023-05-25T09:08:59.301Z,15.90
2023-05-25T09:11:39.679Z,20.02
2023-05-25T09:14:14.037Z,22.23
2023-05-25T09:16:47.932Z,22.40
2023-05-25T09:19:20.618Z,25.10
2023-05-25T09:21:59.651Z,14.85
2023-05-25T09:24:35.701Z,21.60
2023-05-25T09:27:11.975Z,23.00
2023-05-25T09:29:44.318Z,18.58
2023-05-25T09:32:17.823Z,18.65
2023-05-25T09:34:50.096Z,23.90
2023-05-25T09:37:22.297Z,29.48
2023-05-25T09:39:54.509Z,21.13
2023-05-25T09:42:26.862Z,26.02
2023-05-25T09:45:00.594Z,23.70
2023-05-25T09:47:32.874Z,22.17
2023-05-25T09:50:06.569Z,28.40
2023-05-25T09:52:39.783Z,17.88
2023-05-25T09:55:12.902Z,20.33
2023-05-25T09:57:45.064Z,22.80
2023-05-25T10:00:18.456Z,28.63
2023-05-25T10:02:51.738Z,21.55
2023-05-25T10:05:23.881Z,20.33
2023-05-25T10:07:56.484Z,34.10
2023-05-25T10:10:29.756Z,19.45
2023-05-25T10:13:02.264Z,21.52
2023-05-25T10:15:36.708Z,28.83
2023-05-25T10:18:12.414Z,32.17
2023-05-25T10:20:47.455Z,26.27
2023-05-25T10:23:22.076Z,19.02
2023-05-25T10:25:58.134Z,17.45
2023-05-25T10:28:36.542Z,21.50
2023-05-25T10:31:10.786Z,21.00
2023-05-25T10:33:49.032Z,23.67
2023-05-25T10:36:27.349Z,27.70
2023-05-25T10:39:01.035Z,18.63
2023-05-25T10:41:33.146Z,25.45
2023-05-25T10:44:05.520Z,20.60
2023-05-25T10:46:37.847Z,17.67
2023-05-25T10:49:10.971Z,21.83
2023-05-25T10:51:44.067Z,22.15
2023-05-25T10:54:16.232Z,24.80
2023-05-25T10:57:16.435Z,22.30
2023-05-25T11:02:28.035Z,23.95
2023-05-25T11:05:28.034Z,30.23
2023-05-25T11:10:59.425Z,20.92
2023-05-25T11:13:40.936Z,22.90
2023-05-25T11:16:20.659Z,22.50
2023-05-25T11:18:59.212Z,26.95
2023-05-25T11:21:32.465Z,28.88
2023-05-25T11:24:12.493Z,24.45
2023-05-25T11:29:36.378Z,24.05
2023-05-25T11:32:15.628Z,21.55
2023-05-25T11:34:48.796Z,26.88
2023-05-25T11:37:24.973Z,21.20
2023-05-25T11:39:57.137Z,26.35
2023-05-25T11:42:31.150Z,32.70
2023-05-25T11:45:03.732Z,25.52
2023-05-25T11:47:35.980Z,29.67
2023-05-25T11:50:17.556Z,24.95
2023-05-25T11:52:49.767Z,25.33
2023-05-25T11:55:21.957Z,25.08
2023-05-25T11:57:58.361Z,27.27
2023-05-25T12:00:31.719Z,21.83
2023-05-25T12:03:03.952Z,17.00
2023-05-25T12:05:39.787Z,21.60
2023-05-25T12:08:12.188Z,20.40
2023-05-25T12:10:53.425Z,33.97
2023-05-25T12:13:26.417Z,20.25
2023-05-25T12:16:00.504Z,20.83
2023-05-25T12:18:33.387Z,23.92
2023-05-25T12:21:08.569Z,19.48
2023-05-25T12:23:40.875Z,21.55
2023-05-25T12:26:16.474Z,21.88
2023-05-25T12:29:10.375Z,24.40
2023-05-25T12:31:42.538Z,20.80
2023-05-25T12:34:17.485Z,20.83
2023-05-25T12:36:52.093Z,19.52
2023-05-25T12:39:30.165Z,21.23
2023-05-25T12:42:03.595Z,17.85
2023-05-25T12:44:37.588Z,21.30
2023-05-25T12:47:20.144Z,25.20
2023-05-25T12:49:55.081Z,20.67
2023-05-25T12:52:44.842Z,21.05
2023-05-25T12:55:22.619Z,16.80
2023-05-25T12:58:06.950Z,21.70
2023-05-25T13:00:41.265Z,22.15
2023-05-25T13:03:13.781Z,30.88
2023-05-25T13:05:46.770Z,24.40
2023-05-25T13:08:19.019Z,16.05
2023-05-25T13:10:51.715Z,25.73
2023-05-25T13:13:23.831Z,25.33
2023-05-25T13:15:56.015Z,23.65
2023-05-25T13:18:28.151Z,23.13
2023-05-25T13:21:00.780Z,21.15
2023-05-25T13:23:33.193Z,26.77
2023-05-25T13:26:05.347Z,24.15
2023-05-25T13:28:37.462Z,20.67
2023-05-25T13:31:12.442Z,23.88
2023-05-25T13:33:44.572Z,19.98
2023-05-25T13:36:16.682Z,23.60
2023-05-25T13:38:49.289Z,21.33
2023-05-25T13:41:21.795Z,31.48
2023-05-25T13:43:54.004Z,28.90
2023-05-25T13:46:34.753Z,23.05
2023-05-25T13:49:07.448Z,26.23
2023-05-25T13:51:39.588Z,21.45
2023-05-25T13:54:13.002Z,26.08
2023-05-25T13:56:45.100Z,27.58
2023-05-25T13:59:17.219Z,22.92
2023-05-25T14:01:49.529Z,19.60
2023-05-25T14:04:21.760Z,33.22
2023-05-25T14:06:53.889Z,27.27
2023-05-25T14:09:26.184Z,24.50
2023-05-25T14:11:58.255Z,25.80
2023-05-25T14:14:32.652Z,24.38
2023-05-25T14:17:05.186Z,27.60
2023-05-25T14:19:37.940Z,23.83
2023-05-25T14:22:14.207Z,33.28
2023-05-25T14:24:46.765Z,24.83
2023-05-25T14:27:21.344Z,35.33
2023-05-25T14:29:53.515Z,20.30
2023-05-25T14:32:25.710Z,21.00
2023-05-25T14:34:57.935Z,33.08
2023-05-25T14:37:30.021Z,23.63
2023-05-25T14:40:02.279Z,25.45
2023-05-25T14:42:35.152Z,20.15
2023-05-25T14:45:10.713Z,30.73
2023-05-25T14:47:43.494Z,31.08
2023-05-25T14:50:16.931Z,29.80
2023-05-25T14:52:49.049Z,24.08
2023-05-25T14:55:21.305Z,32.33
2023-05-25T14:57:53.459Z,26.60
2023-05-25T15:00:30.501Z,34.72
2023-05-25T15:03:03.035Z,22.45
2023-05-25T15:05:35.322Z,28.77
2023-05-25T15:08:07.473Z,27.27
2023-05-25T15:10:39.676Z,24.23
2023-05-25T15:13:13.298Z,35.25
2023-05-25T15:15:45.854Z,31.05
2023-05-25T15:18:18.159Z,23.90
2023-05-25T15:20:50.338Z,21.35
2023-05-25T15:23:22.447Z,33.15
2023-05-25T15:25:54.613Z,34.08
2023-05-25T15:28:26.712Z,34.20
2023-05-25T15:31:02.341Z,35.08
2023-05-25T15:33:50.177Z,32.22
2023-05-25T15:36:26.185Z,27.95
2023-05-25T15:38:58.487Z,34.17
2023-05-25T15:41:30.705Z,22.17
2023-05-25T15:44:02.878Z,26.20
2023-05-25T15:46:36.229Z,29.27
2023-05-25T15:49:11.667Z,39.00
2023-05-25T15:51:44.678Z,35.97
2023-05-25T15:54:16.890Z,23.80
2023-05-25T15:56:49.029Z,30.20
2023-05-25T15:59:21.189Z,29.35
2023-05-25T16:01:53.339Z,30.38
2023-05-25T16:04:25.546Z,23.05
2023-05-25T16:06:59.408Z,31.80
2023-05-25T16:09:32.205Z,33.63
2023-05-25T16:12:04.472Z,28.40
2023-05-25T16:14:36.756Z,28.77
2023-05-25T16:17:09.085Z,30.83
2023-05-25T16:19:41.310Z,28.55
2023-05-25T16:22:13.503Z,29.17
2023-05-25T16:24:45.744Z,31.90
2023-05-25T16:27:18.031Z,37.22
2023-05-25T16:29:50.227Z,23.73
2023-05-25T16:32:22.382Z,37.20
2023-05-25T16:34:54.567Z,39.20
2023-05-25T16:37:27.572Z,31.10
2023-05-25T16:39:59.736Z,25.42
2023-05-25T16:42:31.883Z,36.75
2023-05-25T16:45:04.390Z,28.90
2023-05-25T16:47:36.509Z,26.63
2023-05-25T16:50:09.254Z,34.30
2023-05-25T16:52:41.890Z,23.15
2023-05-25T16:55:16.423Z,30.73
2023-05-25T16:57:48.713Z,30.63
2023-05-25T17:00:21.365Z,26.13
2023-05-25T17:02:53.610Z,28.55
2023-05-25T17:05:25.892Z,31.98
2023-05-25T17:07:58.047Z,25.02
2023-05-25T17:10:30.139Z,25.23
2023-05-25T17:13:02.324Z,32.95
2023-05-25T17:15:34.459Z,31.35
2023-05-25T17:18:06.936Z,27.33
2023-05-25T17:20:40.752Z,34.33
2023-05-25T17:23:13.006Z,25.80
2023-05-25T17:25:45.364Z,28.45
2023-05-25T17:28:17.703Z,26.98
2023-05-25T17:30:49.824Z,28.80
2023-05-25T17:33:21.921Z,40.67
2023-05-25T17:35:54.175Z,36.45
2023-05-25T17:38:27.803Z,30.80
2023-05-25T17:41:01.506Z,38.38
2023-05-25T17:43:33.727Z,36.85
2023-05-25T17:46:06.682Z,39.58
2023-05-25T17:48:38.856Z,25.38
2023-05-25T17:51:11.290Z,35.05
2023-05-25T17:53:43.509Z,30.10
2023-05-25T17:56:16.027Z,35.92
2023-05-25T17:58:48.137Z,39.95
2023-05-25T18:01:20.420Z,31.17
2023-05-25T18:03:54.160Z,28.45
2023-05-25T18:06:29.108Z,38.30
2023-05-25T18:09:01.463Z,32.30
2023-05-25T18:11:33.828Z,26.73
2023-05-25T18:14:05.931Z,33.70
2023-05-25T18:16:39.875Z,27.75
2023-05-25T18:19:12.201Z,34.08
2023-05-25T18:21:44.324Z,28.80
2023-05-25T18:24:16.532Z,26.98
2023-05-25T18:26:48.608Z,47.83
2023-05-25T18:29:20.930Z,25.55
2023-05-25T18:31:53.090Z,25.27
2023-05-25T18:34:25.635Z,32.97
2023-05-25T18:36:57.713Z,30.83
2023-05-25T18:39:29.988Z,33.40
2023-05-25T18:42:02.769Z,29.65
2023-05-25T18:44:36.498Z,34.75
2023-05-25T18:47:08.657Z,26.52
2023-05-25T18:49:41.134Z,30.27
2023-05-25T18:52:13.600Z,38.35
2023-05-25T18:54:46.538Z,26.30
2023-05-25T18:57:18.825Z,31.73
2023-05-25T18:59:51.067Z,31.67
2023-05-25T19:02:23.385Z,29.52
2023-05-25T19:04:55.648Z,35.05
2023-05-25T19:07:27.823Z,39.17
2023-05-25T19:10:00.057Z,37.92
2023-05-25T19:12:32.231Z,37.55
2023-05-25T19:15:05.399Z,37.63
2023-05-25T19:17:37.671Z,44.83
2023-05-25T19:20:10.280Z,28.05
2023-05-25T19:22:42.699Z,36.30
2023-05-25T19:25:15.006Z,48.03
2023-05-25T19:27:47.148Z,36.08
2023-05-25T19:30:19.733Z,26.10
2023-05-25T19:32:51.904Z,32.97
2023-05-25T19:35:24.082Z,43.45
2023-05-25T19:37:56.223Z,32.70
2023-05-25T19:40:39.276Z,28.35
2023-05-25T19:43:12.058Z,27.40
2023-05-25T19:45:49.717Z,37.45
2023-05-25T19:48:27.205Z,37.13
2023-05-25T19:51:01.374Z,41.50
2023-05-25T19:53:40.925Z,51.80
2023-05-25T19:56:14.643Z,42.35
2023-05-25T19:58:46.974Z,41.22
2023-05-25T20:01:19.412Z,40.75
2023-05-25T20:03:51.789Z,25.85
2023-05-25T20:06:24.686Z,30.92
2023-05-25T20:08:56.907Z,38.92
2023-05-25T20:11:29.880Z,45.03
2023-05-25T20:14:02.752Z,39.85
2023-05-25T20:16:35.437Z,36.33
2023-05-25T20:19:11.180Z,34.38
2023-05-25T20:21:43.419Z,31.85
2023-05-25T20:24:15.711Z,36.45
2023-05-25T20:26:47.991Z,44.67
2023-05-25T20:29:20.292Z,30.33
2023-05-25T20:31:53.560Z,39.50
2023-05-25T20:34:26.308Z,33.58
2023-05-25T20:36:58.613Z,36.17
2023-05-25T20:39:30.938Z,43.65
2023-05-25T20:42:03.334Z,43.50
2023-05-25T20:44:35.720Z,41.47
2023-05-25T20:47:10.794Z,35.35
2023-05-25T20:49:43.060Z,46.28
2023-05-25T20:52:24.204Z,43.58
2023-05-25T20:54:56.496Z,43.28
2023-05-25T20:57:30.121Z,39.13
2023-05-25T21:00:03.302Z,40.33
2023-05-25T21:02:35.615Z,40.00
2023-05-25T21:05:08.307Z,44.22
2023-05-25T21:07:41.370Z,33.13
2023-05-25T21:10:13.699Z,35.95
2023-05-25T21:12:46.265Z,42.00
2023-05-25T21:15:18.541Z,38.80
2023-05-25T21:17:51.094Z,34.08
2023-05-25T21:20:23.572Z,34.90
2023-05-25T21:22:56.064Z,46.05
2023-05-25T21:25:31.626Z,37.22
2023-05-25T21:28:04.053Z,24.55
2023-05-25T21:30:36.506Z,39.53
2023-05-25T21:33:08.950Z,47.85
2023-05-25T21:35:41.213Z,40.97
2023-05-25T21:38:14.252Z,37.70
2023-05-25T21:40:46.583Z,32.80
2023-05-25T21:43:19.029Z,45.42
2023-05-25T21:45:51.613Z,54.65
2023-05-25T21:48:25.503Z,39.45
2023-05-25T21:50:57.991Z,34.15
2023-05-25T21:53:30.260Z,25.40
2023-05-25T21:56:02.776Z,34.25
2023-05-25T21:58:35.120Z,38.88
2023-05-25T22:01:10.535Z,41.88
2023-05-25T22:03:42.960Z,49.08
2023-05-25T22:06:15.516Z,43.13
2023-05-25T22:08:50.578Z,33.35
2023-05-25T22:11:26.141Z,37.75
2023-05-25T22:13:58.406Z,43.33
2023-05-25T22:16:30.923Z,32.70
2023-05-25T22:19:05.454Z,39.40
2023-05-25T22:21:38.139Z,33.65
2023-05-25T22:24:10.417Z,43.10
2023-05-25T22:26:42.678Z,45.35
2023-05-25T22:29:15.101Z,40.15
2023-05-25T22:31:47.361Z,42.90
2023-05-25T22:34:19.692Z,51.10
2023-05-25T22:36:52.081Z,37.33
2023-05-25T22:39:24.392Z,56.47
2023-05-25T22:41:56.617Z,57.53
2023-05-25T22:44:28.967Z,37.85
2023-05-25T22:47:01.342Z,39.78
2023-05-25T22:49:41.154Z,34.40
2023-05-25T22:52:16.227Z,48.97
2023-05-25T22:54:48.565Z,32.05
2023-05-25T22:57:20.838Z,44.20
2023-05-25T22:59:53.089Z,44.88
2023-05-25T23:02:25.874Z,41.72
2023-05-25T23:04:58.301Z,39.97
2023-05-25T23:07:31.514Z,42.60
2023-05-25T23:10:04.451Z,51.40
2023-05-25T23:12:36.651Z,51.08
2023-05-25T23:15:09.793Z,37.33
2023-05-25T23:17:41.998Z,42.83
2023-05-25T23:20:14.422Z,43.50
2023-05-25T23:22:46.642Z,37.42
2023-05-25T23:25:18.850Z,42.15
2023-05-25T23:27:51.181Z,46.22
2023-05-25T23:30:24.072Z,43.35
2023-05-25T23:32:56.285Z,48.35
2023-05-25T23:35:28.905Z,54.20
2023-05-25T23:38:02.035Z,39.60
2023-05-25T23:40:34.231Z,45.53
2023-05-25T23:43:06.674Z,53.72
2023-05-25T23:45:39.517Z,48.28
2023-05-25T23:48:11.753Z,42.30
2023-05-25T23:50:43.979Z,54.10
2023-05-25T23:53:16.152Z,37.63
2023-05-25T23:55:48.325Z,36.17
2023-05-25T23:58:20.475Z,32.42
